Time;durP1;ratioP1;P1;durP2;ratioP2;P2;SDS_P1;SDS_P2;PMS_P1;PMS_P2;Temp;Humidity;BMP_temperature;BMP_pressure;BME280_temperature;BME280_humidity;BME280_pressure;Samples;Min_cycle;Max_cycle;Signal;HPM_P1;HPM_P2
2022/03/06 00:01:27;;;;;;;151.60;141.87;;;1.40;99.90;;;;;;4421975;32;20163;-60
2022/03/06 00:03:55;;;;;;;158.57;149.10;;;1.40;99.90;;;;;;4429753;32;20161;-59
2022/03/06 00:06:22;;;;;;;155.90;146.50;;;1.40;99.90;;;;;;4428821;32;20186;-60
2022/03/06 00:08:49;;;;;;;151.20;141.40;;;1.40;99.90;;;;;;4424058;32;20135;-60
2022/03/06 00:11:16;;;;;;;158.30;148.43;;;1.40;99.90;;;;;;4428060;32;20216;-62
2022/03/06 00:13:43;;;;;;;155.77;146.30;;;1.30;99.90;;;;;;4426505;32;20152;-60
2022/03/06 00:16:10;;;;;;;152.83;143.37;;;1.30;99.90;;;;;;4429901;32;20161;-61
2022/03/06 00:18:37;;;;;;;159.07;149.67;;;1.30;99.90;;;;;;4425014;32;20152;-62
2022/03/06 00:21:06;;;;;;;161.60;151.63;;;1.30;99.90;;;;;;4425149;32;20148;-61
2022/03/06 00:23:34;;;;;;;163.60;154.07;;;1.20;99.90;;;;;;4427114;32;20156;-62
2022/03/06 00:26:01;;;;;;;156.83;147.13;;;1.20;99.90;;;;;;4428834;32;20147;-61
2022/03/06 00:28:28;;;;;;;150.23;141.20;;;1.20;99.90;;;;;;4425968;32;20155;-61
2022/03/06 00:30:55;;;;;;;154.40;145.47;;;1.20;99.90;;;;;;4425892;32;20527;-60
2022/03/06 00:33:22;;;;;;;162.77;152.43;;;1.20;99.90;;;;;;4424426;32;20201;-62
2022/03/06 00:35:49;;;;;;;163.13;153.77;;;1.10;99.90;;;;;;4426026;32;20213;-60
2022/03/06 00:38:17;;;;;;;162.63;152.63;;;1.10;99.90;;;;;;4428657;32;20155;-62
2022/03/06 00:40:45;;;;;;;173.27;162.83;;;1.10;99.90;;;;;;4428500;32;20214;-61
2022/03/06 00:43:12;;;;;;;163.80;154.00;;;1.10;99.90;;;;;;4429866;32;20179;-59
2022/03/06 00:45:39;;;;;;;160.20;150.73;;;1.10;99.90;;;;;;4423068;32;20162;-62
2022/03/06 00:48:06;;;;;;;157.30;147.87;;;1.10;99.90;;;;;;4427513;32;20165;-61
2022/03/06 00:50:36;;;;;;;157.80;148.33;;;1.10;99.90;;;;;;4426731;32;20170;-60
2022/03/06 00:53:02;;;;;;;153.07;144.27;;;1.10;99.90;;;;;;4428729;32;20209;-60
2022/03/06 00:55:31;;;;;;;156.17;146.97;;;1.10;99.90;;;;;;4428181;32;20205;-60
2022/03/06 00:58:05;;;;;;;155.17;145.80;;;1.10;99.90;;;;;;4425257;32;20219;-60
2022/03/06 01:00:35;;;;;;;151.80;143.37;;;1.10;99.90;;;;;;4411409;32;20132;-59
2022/03/06 01:03:05;;;;;;;144.40;135.97;;;1.10;99.90;;;;;;4409371;32;20604;-61
2022/03/06 01:05:35;;;;;;;150.40;142.00;;;1.00;99.90;;;;;;4407290;32;20166;-60
2022/03/06 01:08:02;;;;;;;153.83;145.13;;;1.00;99.90;;;;;;4410643;32;20158;-61
2022/03/06 01:10:34;;;;;;;152.97;143.97;;;1.00;99.90;;;;;;4409093;32;20547;-60
2022/03/06 01:13:01;;;;;;;160.50;151.43;;;0.90;99.90;;;;;;4409480;32;20148;-59
2022/03/06 01:15:29;;;;;;;151.83;143.27;;;0.90;99.90;;;;;;4412703;32;20163;-59
2022/03/06 01:17:56;;;;;;;151.80;142.87;;;0.90;99.90;;;;;;4407672;32;20551;-62
2022/03/06 01:20:23;;;;;;;152.43;143.83;;;0.90;99.90;;;;;;4410710;32;20202;-61
2022/03/06 01:22:51;;;;;;;154.07;145.37;;;0.90;99.90;;;;;;4407599;32;20532;-60
2022/03/06 01:25:18;;;;;;;148.70;140.57;;;0.90;99.90;;;;;;4411545;32;20501;-60
2022/03/06 01:27:47;;;;;;;158.33;149.73;;;0.90;99.90;;;;;;4411179;32;20191;-59
2022/03/06 01:30:16;;;;;;;149.33;140.83;;;0.90;99.90;;;;;;4411325;32;20174;-60
2022/03/06 01:32:46;;;;;;;151.47;142.70;;;1.00;99.90;;;;;;4410885;32;20217;-60
2022/03/06 01:35:13;;;;;;;145.07;136.90;;;1.00;99.90;;;;;;4409333;32;20205;-58
2022/03/06 01:37:40;;;;;;;146.23;137.93;;;1.00;99.90;;;;;;4412069;32;20149;-59
2022/03/06 01:40:09;;;;;;;152.83;144.50;;;1.00;99.90;;;;;;4411204;32;20147;-59
2022/03/06 01:42:40;;;;;;;144.17;135.77;;;1.00;99.90;;;;;;4411903;32;20148;-62
2022/03/06 01:45:09;;;;;;;142.93;134.83;;;1.00;99.90;;;;;;4409535;32;20132;-60
2022/03/06 01:47:39;;;;;;;151.93;143.63;;;1.00;99.90;;;;;;4411717;32;20139;-60
2022/03/06 01:50:09;;;;;;;146.00;137.70;;;0.90;99.90;;;;;;4414504;32;20563;-60
2022/03/06 01:52:36;;;;;;;150.30;141.37;;;1.00;99.90;;;;;;4411994;32;20155;-60
2022/03/06 01:55:04;;;;;;;149.70;141.07;;;1.00;99.90;;;;;;4408958;32;20193;-62
2022/03/06 01:57:31;;;;;;;155.30;146.67;;;1.00;99.90;;;;;;4409662;32;20162;-61
2022/03/06 01:59:58;;;;;;;148.47;139.97;;;1.10;99.90;;;;;;4420970;32;20516;-62
2022/03/06 02:02:26;;;;;;;148.17;140.30;;;1.00;99.90;;;;;;4426234;32;20576;-61
2022/03/06 02:04:53;;;;;;;144.10;136.23;;;1.00;99.90;;;;;;4425145;32;20178;-61
2022/03/06 02:07:20;;;;;;;143.83;135.37;;;0.90;99.90;;;;;;4425367;32;20158;-60
2022/03/06 02:09:47;;;;;;;145.23;136.83;;;0.90;99.90;;;;;;4424342;32;20560;-60
2022/03/06 02:12:25;;;;;;;147.03;139.07;;;1.00;99.90;;;;;;4424443;32;20206;-59
2022/03/06 02:14:54;;;;;;;149.97;142.00;;;0.90;99.90;;;;;;4429117;32;20139;-61
2022/03/06 02:17:21;;;;;;;150.33;142.33;;;0.90;99.90;;;;;;4430319;32;20240;-61
2022/03/06 02:19:55;;;;;;;146.23;138.17;;;0.90;99.90;;;;;;4428943;32;20192;-60
2022/03/06 02:22:25;;;;;;;151.00;143.13;;;0.90;99.90;;;;;;4426893;32;20181;-60
2022/03/06 02:24:52;;;;;;;145.93;138.07;;;0.90;99.90;;;;;;4429382;32;20147;-60
2022/03/06 02:27:19;;;;;;;144.93;137.33;;;0.90;99.90;;;;;;4427842;32;20128;-60
2022/03/06 02:29:46;;;;;;;138.10;130.77;;;1.00;99.90;;;;;;4429406;32;20490;-60
2022/03/06 02:32:17;;;;;;;145.37;137.57;;;1.00;99.90;;;;;;4426631;32;20333;-61
2022/03/06 02:34:45;;;;;;;134.63;127.10;;;0.90;99.90;;;;;;4429327;32;20175;-61
2022/03/06 02:37:13;;;;;;;153.80;145.57;;;0.80;99.90;;;;;;4427519;32;20475;-60
2022/03/06 02:39:43;;;;;;;138.57;131.30;;;0.80;99.90;;;;;;4428621;32;20192;-60
2022/03/06 02:42:10;;;;;;;144.00;136.20;;;0.70;99.90;;;;;;4431121;32;20139;-61
2022/03/06 02:44:38;;;;;;;146.97;139.23;;;0.70;99.90;;;;;;4430107;32;20192;-61
2022/03/06 02:47:05;;;;;;;145.33;137.53;;;0.60;99.90;;;;;;4426654;32;20226;-60
2022/03/06 02:49:32;;;;;;;140.60;132.80;;;0.50;99.90;;;;;;4427734;32;20175;-60
2022/03/06 02:51:59;;;;;;;142.80;135.00;;;0.50;99.90;;;;;;4427747;32;20131;-60
2022/03/06 02:54:31;;;;;;;136.60;129.30;;;0.50;99.90;;;;;;4425945;32;20139;-61
2022/03/06 02:56:59;;;;;;;140.73;132.87;;;0.50;99.90;;;;;;4428556;32;20565;-60
2022/03/06 02:59:26;;;;;;;137.13;129.87;;;0.50;99.90;;;;;;4427876;32;20147;-60
2022/03/06 03:01:54;;;;;;;143.60;136.20;;;0.50;99.90;;;;;;4428616;32;20135;-61
2022/03/06 03:04:22;;;;;;;139.63;132.00;;;0.40;99.90;;;;;;4426693;32;20226;-61
2022/03/06 03:06:50;;;;;;;147.60;139.33;;;0.30;99.90;;;;;;4428646;32;20473;-60
2022/03/06 03:09:20;;;;;;;146.00;138.47;;;0.30;99.90;;;;;;4430342;32;20239;-61
2022/03/06 03:11:47;;;;;;;136.60;129.53;;;0.20;99.90;;;;;;4427907;32;20151;-61
2022/03/06 03:14:15;;;;;;;139.50;132.17;;;0.20;99.90;;;;;;4424028;32;20863;-61
2022/03/06 03:16:42;;;;;;;141.37;133.80;;;0.20;99.90;;;;;;4428452;32;20152;-58
2022/03/06 03:19:09;;;;;;;139.23;131.93;;;0.20;99.90;;;;;;4427454;32;20440;-60
2022/03/06 03:21:40;;;;;;;136.67;129.43;;;0.20;99.90;;;;;;4428404;32;20162;-58
2022/03/06 03:24:08;;;;;;;136.23;128.87;;;0.10;99.90;;;;;;4428545;32;20213;-59
2022/03/06 03:26:35;;;;;;;140.47;133.17;;;0.10;99.90;;;;;;4426371;32;20611;-60
2022/03/06 03:29:02;;;;;;;145.50;136.07;;;0.00;99.90;;;;;;4428149;32;20231;-61
2022/03/06 03:31:30;;;;;;;141.43;133.93;;;0.00;99.90;;;;;;4429855;32;20210;-60
2022/03/06 03:33:57;;;;;;;139.07;131.73;;;0.00;99.90;;;;;;4431317;32;20134;-60
2022/03/06 03:36:27;;;;;;;147.43;139.43;;;0.00;99.90;;;;;;4427839;32;20218;-61
2022/03/06 03:38:54;;;;;;;144.47;136.67;;;0.00;99.90;;;;;;4427651;32;20202;-61
2022/03/06 03:41:22;;;;;;;148.27;140.27;;;0.00;99.90;;;;;;4426906;32;20140;-59
2022/03/06 03:43:52;;;;;;;144.60;136.73;;;0.00;99.90;;;;;;4429725;32;20147;-61
2022/03/06 03:46:19;;;;;;;142.57;134.83;;;-0.10;99.90;;;;;;4425616;32;20136;-62
2022/03/06 03:48:51;;;;;;;155.03;146.97;;;-0.10;99.90;;;;;;4428392;32;20207;-61
2022/03/06 03:51:17;;;;;;;149.97;141.83;;;-0.10;99.90;;;;;;4425117;32;20167;-60
2022/03/06 03:53:44;;;;;;;153.83;145.67;;;-0.10;99.90;;;;;;4426255;32;20170;-59
2022/03/06 03:56:11;;;;;;;153.23;145.13;;;-0.10;99.90;;;;;;4424498;32;20164;-59
2022/03/06 03:58:38;;;;;;;150.37;142.13;;;-0.20;99.90;;;;;;4428818;32;20136;-60
2022/03/06 04:01:05;;;;;;;150.43;142.57;;;-0.20;99.90;;;;;;4426870;32;20147;-60
2022/03/06 04:03:32;;;;;;;153.13;144.83;;;-0.30;99.90;;;;;;4426117;32;20170;-59
2022/03/06 04:06:00;;;;;;;155.07;146.30;;;-0.20;99.90;;;;;;4428561;32;20193;-60
2022/03/06 04:08:27;;;;;;;152.50;144.03;;;-0.20;99.90;;;;;;4426503;32;20144;-61
2022/03/06 04:10:56;;;;;;;145.40;137.10;;;-0.20;99.90;;;;;;4427460;32;20555;-59
2022/03/06 04:13:24;;;;;;;147.77;139.67;;;-0.20;99.90;;;;;;4429646;32;20127;-60
2022/03/06 04:15:51;;;;;;;145.97;137.77;;;-0.30;99.90;;;;;;4430703;32;20143;-60
2022/03/06 04:18:18;;;;;;;144.17;136.37;;;-0.30;99.90;;;;;;4423777;32;20563;-59
2022/03/06 04:20:45;;;;;;;151.50;143.47;;;-0.40;99.90;;;;;;4426861;32;20190;-60
2022/03/06 04:23:13;;;;;;;149.70;141.17;;;-0.40;99.90;;;;;;4428599;32;20553;-60
2022/03/06 04:25:43;;;;;;;157.70;149.13;;;-0.40;99.90;;;;;;4426824;32;20239;-57
2022/03/06 04:28:10;;;;;;;158.50;149.50;;;-0.40;99.90;;;;;;4426658;32;20167;-60
2022/03/06 04:30:37;;;;;;;147.00;138.53;;;-0.40;99.90;;;;;;4424329;32;20135;-59
2022/03/06 04:33:04;;;;;;;161.37;152.57;;;-0.40;99.90;;;;;;4427812;32;20155;-59
2022/03/06 04:35:31;;;;;;;157.00;148.30;;;-0.50;99.90;;;;;;4427318;32;20159;-61
2022/03/06 04:37:58;;;;;;;156.90;148.43;;;-0.50;99.90;;;;;;4423857;32;20148;-60
2022/03/06 04:40:27;;;;;;;156.37;147.50;;;-0.50;99.90;;;;;;4428527;32;20154;-60
2022/03/06 04:42:54;;;;;;;153.00;144.50;;;-0.50;99.90;;;;;;4426372;32;20208;-60
2022/03/06 04:45:23;;;;;;;153.67;145.33;;;-0.50;99.90;;;;;;4425939;32;20139;-60
2022/03/06 04:47:50;;;;;;;148.17;139.30;;;-0.50;99.90;;;;;;4424149;32;20204;-59
2022/03/06 04:50:17;;;;;;;147.67;139.53;;;-0.50;99.90;;;;;;4426047;32;20155;-60
2022/03/06 04:52:46;;;;;;;146.20;137.93;;;-0.50;99.90;;;;;;4424309;32;20139;-57
2022/03/06 04:55:13;;;;;;;151.40;142.93;;;-0.50;99.90;;;;;;4427484;32;20162;-59
2022/03/06 04:57:46;;;;;;;152.13;143.53;;;-0.50;99.90;;;;;;4427556;32;20152;-57
2022/03/06 05:00:15;;;;;;;146.20;137.87;;;-0.50;99.90;;;;;;4422750;32;20152;-58
2022/03/06 05:02:42;;;;;;;156.20;147.47;;;-0.50;99.90;;;;;;4424078;32;20139;-60
2022/03/06 05:05:09;;;;;;;159.90;151.30;;;-0.50;99.90;;;;;;4426045;32;20244;-61
2022/03/06 05:07:39;;;;;;;161.63;152.63;;;-0.60;99.90;;;;;;4426568;32;20139;-60
2022/03/06 05:10:09;;;;;;;159.50;150.63;;;-0.50;99.90;;;;;;4423318;32;20158;-61
2022/03/06 05:12:41;;;;;;;157.03;148.60;;;-0.60;99.90;;;;;;4427277;32;20166;-61
2022/03/06 05:15:10;;;;;;;157.50;148.43;;;-0.60;99.90;;;;;;4427412;32;20147;-58
2022/03/06 05:17:39;;;;;;;160.43;151.57;;;-0.70;99.90;;;;;;4426883;32;20147;-61
2022/03/06 05:20:08;;;;;;;152.30;143.37;;;-0.70;99.90;;;;;;4427525;32;20582;-59
2022/03/06 05:22:35;;;;;;;162.03;153.27;;;-0.60;99.90;;;;;;4427992;32;20175;-60
2022/03/06 05:25:02;;;;;;;158.40;149.60;;;-0.70;99.90;;;;;;4425590;32;20144;-60
2022/03/06 05:27:34;;;;;;;155.47;146.73;;;-0.70;99.90;;;;;;4427553;32;20159;-58
2022/03/06 05:30:03;;;;;;;163.90;154.23;;;-0.60;99.90;;;;;;4428636;32;20143;-59
2022/03/06 05:32:30;;;;;;;152.93;143.90;;;-0.60;99.90;;;;;;4426768;32;20193;-59
2022/03/06 05:34:56;;;;;;;163.77;154.67;;;-0.60;99.90;;;;;;4425730;32;20147;-60
2022/03/06 05:37:27;;;;;;;161.90;152.77;;;-0.70;99.90;;;;;;4430087;32;20197;-58
2022/03/06 05:39:54;;;;;;;155.80;146.93;;;-0.70;99.90;;;;;;4426847;32;20157;-59
2022/03/06 05:42:25;;;;;;;148.53;140.13;;;-0.70;99.90;;;;;;4422242;32;20196;-60
2022/03/06 05:44:52;;;;;;;154.50;145.77;;;-0.70;99.90;;;;;;4421911;32;20162;-59
2022/03/06 05:47:20;;;;;;;162.03;153.20;;;-0.70;99.90;;;;;;4430778;32;20146;-57
2022/03/06 05:49:47;;;;;;;165.00;155.77;;;-0.70;99.90;;;;;;4430563;32;20151;-61
2022/03/06 05:52:14;;;;;;;155.50;146.77;;;-0.70;99.90;;;;;;4427815;32;20143;-59
2022/03/06 05:54:41;;;;;;;159.90;150.90;;;-0.60;99.90;;;;;;4425448;32;20170;-60
2022/03/06 05:57:08;;;;;;;157.20;148.30;;;-0.70;99.90;;;;;;4428701;32;20170;-60
2022/03/06 05:59:35;;;;;;;157.10;148.00;;;-0.70;99.90;;;;;;4428903;32;20186;-61
2022/03/06 06:02:02;;;;;;;160.40;151.27;;;-0.70;99.90;;;;;;4429376;32;20143;-60
2022/03/06 06:04:31;;;;;;;163.00;153.77;;;-0.70;99.90;;;;;;4430000;32;20156;-61
2022/03/06 06:06:58;;;;;;;158.17;149.27;;;-0.70;99.90;;;;;;4428277;32;20210;-61
2022/03/06 06:09:25;;;;;;;156.50;147.80;;;-0.70;99.90;;;;;;4431650;32;20219;-61
2022/03/06 06:11:52;;;;;;;158.90;149.67;;;-0.70;99.90;;;;;;4428235;32;20192;-60
2022/03/06 06:14:19;;;;;;;157.87;149.03;;;-0.60;99.90;;;;;;4430022;32;20144;-58
2022/03/06 06:16:46;;;;;;;158.73;149.93;;;-0.60;99.90;;;;;;4432665;32;20131;-60
2022/03/06 06:19:13;;;;;;;164.23;154.80;;;-0.70;99.90;;;;;;4427823;32;20174;-58
2022/03/06 06:21:43;;;;;;;157.90;149.27;;;-0.60;99.90;;;;;;4428661;32;20163;-61
2022/03/06 06:24:10;;;;;;;157.73;148.83;;;-0.70;99.90;;;;;;4426537;32;20205;-58
2022/03/06 06:26:39;;;;;;;155.57;147.10;;;-0.50;99.90;;;;;;4428939;32;20509;-60
2022/03/06 06:29:06;;;;;;;160.93;151.67;;;-0.60;99.90;;;;;;4429786;32;20163;-60
2022/03/06 06:31:36;;;;;;;167.67;158.03;;;-0.60;99.90;;;;;;4434051;32;20162;-60
2022/03/06 06:34:03;;;;;;;164.47;155.40;;;-0.60;99.90;;;;;;4431467;32;20143;-60
2022/03/06 06:36:30;;;;;;;167.57;158.50;;;-0.50;99.90;;;;;;4425144;32;20208;-61
2022/03/06 06:38:58;;;;;;;163.53;154.57;;;-0.50;99.90;;;;;;4426759;32;20225;-60
2022/03/06 06:41:25;;;;;;;168.87;159.47;;;-0.50;99.90;;;;;;4429902;32;20182;-59
2022/03/06 06:43:52;;;;;;;160.57;151.77;;;-0.50;99.90;;;;;;4428914;32;20163;-59
2022/03/06 06:46:19;;;;;;;161.60;153.00;;;-0.50;99.90;;;;;;4429083;32;20132;-59
2022/03/06 06:48:46;;;;;;;165.40;156.30;;;-0.40;99.90;;;;;;4428314;32;20161;-63
2022/03/06 06:51:13;;;;;;;159.07;150.33;;;-0.30;99.90;;;;;;4428159;32;20193;-59
2022/03/06 06:53:40;;;;;;;167.37;158.53;;;-0.30;99.90;;;;;;4425878;32;20140;-61
2022/03/06 06:56:08;;;;;;;163.13;154.57;;;-0.20;99.90;;;;;;4427786;32;20159;-59
2022/03/06 06:58:35;;;;;;;170.00;160.93;;;-0.20;99.90;;;;;;4426005;32;20542;-61
2022/03/06 07:01:02;;;;;;;164.23;155.33;;;-0.20;99.90;;;;;;4424265;32;20191;-59
2022/03/06 07:03:30;;;;;;;168.87;160.20;;;-0.10;99.90;;;;;;4427000;32;20140;-59
2022/03/06 07:05:58;;;;;;;166.53;157.40;;;0.00;99.90;;;;;;4429213;32;20217;-60
2022/03/06 07:08:27;;;;;;;165.10;156.30;;;0.10;99.90;;;;;;4422710;32;20191;-58
2022/03/06 07:10:54;;;;;;;163.17;154.27;;;0.20;99.90;;;;;;4424282;32;20186;-61
2022/03/06 07:13:23;;;;;;;172.80;163.17;;;0.30;99.90;;;;;;4426288;32;20181;-58
2022/03/06 07:15:50;;;;;;;163.40;154.60;;;0.30;99.90;;;;;;4424822;32;20159;-57
2022/03/06 07:18:16;;;;;;;166.50;157.83;;;0.40;99.90;;;;;;4423628;32;20169;-62
2022/03/06 07:20:48;;;;;;;177.73;168.60;;;0.40;99.90;;;;;;4421831;32;20529;-57
2022/03/06 07:23:23;;;;;;;165.77;157.47;;;0.50;99.90;;;;;;4422226;32;20634;-59
2022/03/06 07:25:53;;;;;;;175.13;166.10;;;0.50;99.90;;;;;;4424032;32;20209;-59
2022/03/06 07:28:28;;;;;;;169.63;161.17;;;0.60;99.90;;;;;;4425603;32;20171;-59
2022/03/06 07:30:57;;;;;;;175.47;166.43;;;0.70;99.90;;;;;;4422100;32;20313;-59
2022/03/06 07:33:34;;;;;;;167.53;158.93;;;0.70;99.90;;;;;;4422462;32;20174;-60
2022/03/06 07:36:06;;;;;;;167.17;158.80;;;0.80;99.90;;;;;;4421471;32;20139;-59
2022/03/06 07:38:37;;;;;;;169.10;160.87;;;0.90;99.90;;;;;;4421159;32;20148;-60
2022/03/06 07:41:12;;;;;;;173.30;164.20;;;1.00;99.90;;;;;;4421374;32;20236;-60
2022/03/06 07:43:43;;;;;;;175.77;166.90;;;1.10;99.90;;;;;;4423071;32;20155;-58
2022/03/06 07:46:16;;;;;;;177.20;168.23;;;1.20;99.90;;;;;;4422114;32;20226;-61
2022/03/06 07:48:48;;;;;;;175.60;166.87;;;1.20;99.90;;;;;;4431782;32;20452;-60
2022/03/06 07:51:21;;;;;;;176.83;168.43;;;1.40;99.90;;;;;;4426138;32;20174;-61
2022/03/06 07:53:53;;;;;;;170.90;162.50;;;1.50;99.90;;;;;;4421244;32;20166;-61
2022/03/06 07:56:20;;;;;;;169.33;160.90;;;1.50;99.90;;;;;;4424739;32;20136;-60
2022/03/06 07:58:51;;;;;;;166.47;158.43;;;1.60;99.90;;;;;;4422019;32;20995;-60
2022/03/06 08:01:26;;;;;;;159.13;151.30;;;1.70;99.90;;;;;;4425039;32;20143;-60
2022/03/06 08:03:58;;;;;;;158.40;150.47;;;1.80;99.90;;;;;;4423530;32;20127;-60
2022/03/06 08:06:25;;;;;;;155.70;147.87;;;1.90;99.90;;;;;;4431237;32;20178;-60
2022/03/06 08:09:04;;;;;;;156.77;149.10;;;2.00;99.90;;;;;;4422065;32;20183;-59
2022/03/06 08:11:46;;;;;;;154.13;146.53;;;2.10;99.90;;;;;;4429664;32;20568;-60
2022/03/06 08:14:22;;;;;;;147.30;140.13;;;2.20;99.90;;;;;;4423354;32;20159;-61
2022/03/06 08:16:50;;;;;;;147.43;140.17;;;2.30;99.90;;;;;;4425649;32;20485;-60
2022/03/06 08:19:22;;;;;;;145.37;138.63;;;2.40;99.90;;;;;;4424122;32;20156;-61
2022/03/06 08:21:54;;;;;;;139.90;133.27;;;2.50;99.90;;;;;;4422609;32;20135;-61
2022/03/06 08:24:30;;;;;;;130.10;123.90;;;2.70;99.90;;;;;;4426690;32;20166;-60
2022/03/06 08:26:58;;;;;;;129.60;123.47;;;2.70;99.90;;;;;;4426593;32;20155;-60
2022/03/06 08:29:28;;;;;;;134.00;127.87;;;2.80;99.90;;;;;;4425491;32;20227;-60
2022/03/06 08:32:19;;;;;;;121.57;115.97;;;2.90;99.90;;;;;;4424831;32;20213;-60
2022/03/06 08:34:55;;;;;;;125.63;119.67;;;3.00;99.90;;;;;;4372054;32;20651;-60
2022/03/06 08:37:26;;;;;;;119.17;113.77;;;3.00;99.90;;;;;;4371678;32;20152;-59
2022/03/06 08:40:06;;;;;;;120.60;114.93;;;3.00;99.90;;;;;;4372088;32;20231;-60
2022/03/06 08:42:36;;;;;;;112.77;107.63;;;3.10;99.90;;;;;;4370096;32;20190;-60
2022/03/06 08:45:12;;;;;;;111.47;106.50;;;3.10;99.90;;;;;;4373799;32;20165;-59
2022/03/06 08:47:42;;;;;;;112.33;107.27;;;3.10;99.90;;;;;;4374071;32;20504;-59
2022/03/06 08:50:12;;;;;;;109.47;104.57;;;3.20;99.90;;;;;;4372186;32;20236;-60
2022/03/06 08:52:51;;;;;;;105.77;100.70;;;3.30;99.90;;;;;;4371143;32;20231;-60
2022/03/06 08:55:20;;;;;;;102.07;97.63;;;3.40;99.90;;;;;;4367905;32;20214;-60
2022/03/06 08:57:49;;;;;;;101.60;97.03;;;3.50;99.90;;;;;;4372971;32;20591;-60
2022/03/06 09:00:19;;;;;;;99.80;95.00;;;3.50;99.90;;;;;;4372401;32;20202;-61
2022/03/06 09:02:50;;;;;;;105.20;100.30;;;3.60;99.90;;;;;;4368566;32;20203;-61
2022/03/06 09:05:24;;;;;;;101.63;97.03;;;3.70;99.90;;;;;;4368316;32;20176;-59
2022/03/06 09:07:57;;;;;;;96.90;92.50;;;3.70;99.90;;;;;;4373037;32;20160;-59
2022/03/06 09:10:28;;;;;;;100.40;95.63;;;3.70;99.90;;;;;;4368595;32;20272;-60
2022/03/06 09:12:57;;;;;;;100.97;96.47;;;3.80;99.90;;;;;;4416910;32;20195;-60
2022/03/06 09:15:25;;;;;;;99.60;94.90;;;3.90;99.90;;;;;;4420702;32;20139;-60
2022/03/06 09:18:11;;;;;;;98.37;93.40;;;4.00;99.90;;;;;;4419862;32;20589;-61
2022/03/06 09:20:46;;;;;;;96.20;91.70;;;4.10;99.90;;;;;;4417906;32;20177;-58
2022/03/06 09:23:39;;;;;;;90.10;85.80;;;4.10;99.90;;;;;;4408597;32;20136;-59
2022/03/06 09:26:15;;;;;;;92.27;87.97;;;4.10;99.90;;;;;;4418273;32;20181;-59
2022/03/06 09:28:42;;;;;;;92.03;87.73;;;4.10;99.90;;;;;;4420417;32;20569;-60
2022/03/06 09:31:15;;;;;;;90.47;86.03;;;4.10;99.90;;;;;;4407366;32;20168;-60
2022/03/06 09:33:52;;;;;;;88.67;84.57;;;4.10;99.90;;;;;;4410906;32;20161;-60
2022/03/06 09:36:19;;;;;;;87.47;83.33;;;4.00;99.90;;;;;;4418412;32;20152;-60
2022/03/06 09:38:47;;;;;;;90.63;86.53;;;4.00;99.90;;;;;;4420611;32;20170;-61
2022/03/06 09:41:31;;;;;;;87.53;83.33;;;4.10;99.90;;;;;;4418073;32;20134;-61
2022/03/06 09:43:59;;;;;;;87.00;82.90;;;4.10;99.90;;;;;;4411625;32;20169;-60
2022/03/06 09:46:36;;;;;;;91.53;87.33;;;4.10;99.90;;;;;;4420203;32;20179;-60
2022/03/06 09:49:25;;;;;;;94.13;89.63;;;4.20;99.90;;;;;;4416864;32;20145;-60
2022/03/06 09:51:58;;;;;;;93.27;88.97;;;4.30;99.90;;;;;;4417389;32;20132;-59
2022/03/06 09:54:28;;;;;;;88.87;84.63;;;4.30;99.90;;;;;;4410816;32;20162;-60
2022/03/06 09:57:10;;;;;;;90.27;86.23;;;4.40;99.90;;;;;;4414981;32;20163;-60
2022/03/06 09:59:39;;;;;;;90.80;86.63;;;4.40;99.90;;;;;;4420169;32;20245;-60
2022/03/06 10:02:11;;;;;;;87.57;83.47;;;4.50;99.90;;;;;;4417174;32;20201;-60
2022/03/06 10:04:42;;;;;;;90.77;86.67;;;4.50;99.90;;;;;;4414390;32;20183;-61
2022/03/06 10:07:10;;;;;;;89.37;85.03;;;4.50;99.90;;;;;;4412066;32;20501;-60
2022/03/06 10:10:00;;;;;;;92.37;88.13;;;4.50;99.90;;;;;;4419029;32;20176;-60
2022/03/06 10:12:40;;;;;;;87.03;82.83;;;4.60;99.90;;;;;;4411675;32;20159;-62
2022/03/06 10:15:33;;;;;;;93.57;89.20;;;4.60;99.90;;;;;;4415170;32;20221;-62
2022/03/06 10:18:06;;;;;;;90.20;85.83;;;4.80;99.90;;;;;;4416807;32;20161;-60
2022/03/06 10:20:37;;;;;;;90.23;86.17;;;4.80;99.90;;;;;;4413288;32;20152;-61
2022/03/06 10:23:26;;;;;;;88.33;84.20;;;4.80;99.90;;;;;;4413480;32;20135;-61
2022/03/06 10:26:09;;;;;;;86.93;82.90;;;4.90;99.90;;;;;;4408345;32;20174;-62
2022/03/06 10:31:32;;;;;;;92.27;87.83;;;5.10;99.90;;;;;;4410493;32;20589;-59
2022/03/06 10:34:14;;;;;;;90.17;86.07;;;5.10;99.90;;;;;;4414644;32;20158;-60
2022/03/06 10:36:46;;;;;;;91.27;87.27;;;5.20;99.90;;;;;;4411465;32;20547;-62
2022/03/06 10:39:22;;;;;;;91.40;87.20;;;5.30;99.90;;;;;;4419113;32;20165;-61
2022/03/06 10:42:05;;;;;;;87.43;83.27;;;5.30;99.90;;;;;;4421212;32;20139;-61
2022/03/06 10:44:57;;;;;;;95.67;91.17;;;5.30;99.90;;;;;;4422207;32;20185;-61
2022/03/06 10:47:34;;;;;;;96.77;92.30;;;5.30;99.90;;;;;;4418383;32;20147;-60
2022/03/06 10:50:12;;;;;;;89.57;85.43;;;5.40;99.90;;;;;;4413202;32;20140;-60
2022/03/06 10:53:18;;;;;;;88.33;84.27;;;5.30;99.90;;;;;;4419614;32;20151;-60
2022/03/06 10:55:48;;;;;;;90.63;86.47;;;5.40;99.90;;;;;;4372252;32;20178;-61
2022/03/06 10:58:27;;;;;;;90.93;86.43;;;5.50;99.70;;;;;;4373337;32;20608;-61
2022/03/06 11:01:03;;;;;;;87.30;83.40;;;5.50;99.90;;;;;;4371804;32;20219;-60
2022/03/06 11:03:35;;;;;;;88.37;84.37;;;5.60;99.90;;;;;;4364140;32;20152;-60
2022/03/06 11:06:28;;;;;;;87.23;83.20;;;5.70;99.90;;;;;;4367476;32;20226;-60
2022/03/06 11:09:01;;;;;;;91.57;87.37;;;5.70;99.70;;;;;;4371591;32;20141;-60
2022/03/06 11:11:36;;;;;;;85.13;81.23;;;5.70;99.70;;;;;;4374152;32;20175;-61
2022/03/06 11:14:13;;;;;;;99.63;95.23;;;5.70;99.00;;;;;;4375699;32;20140;-60
2022/03/06 11:16:43;;;;;;;83.87;79.80;;;5.70;99.00;;;;;;4373264;32;20194;-60
2022/03/06 11:19:47;;;;;;;85.83;81.57;;;5.60;99.30;;;;;;4372297;32;20214;-62
2022/03/06 11:22:27;;;;;;;82.73;78.87;;;5.60;99.20;;;;;;4370380;32;20128;-60
2022/03/06 11:25:17;;;;;;;86.87;82.73;;;5.60;98.90;;;;;;4373912;32;20168;-60
2022/03/06 11:28:21;;;;;;;80.77;77.17;;;5.60;98.50;;;;;;4373369;32;20595;-60
2022/03/06 11:30:55;;;;;;;79.97;76.10;;;5.60;98.90;;;;;;4367608;32;20346;-59
2022/03/06 11:33:38;;;;;;;81.90;78.00;;;5.70;98.50;;;;;;4410680;32;20247;-60
2022/03/06 11:36:29;;;;;;;79.53;75.90;;;5.80;98.60;;;;;;4418080;32;20147;-59
2022/03/06 11:39:04;;;;;;;80.77;76.97;;;5.80;98.60;;;;;;4418736;32;20504;-61
2022/03/06 11:41:52;;;;;;;76.60;72.80;;;5.80;98.90;;;;;;4419317;32;20267;-61
2022/03/06 11:44:41;;;;;;;75.40;71.70;;;5.80;98.30;;;;;;4418108;32;20189;-61
2022/03/06 11:47:24;;;;;;;77.57;73.83;;;5.90;97.80;;;;;;4418572;32;20282;-61
2022/03/06 11:49:59;;;;;;;77.73;74.00;;;5.90;97.80;;;;;;4418384;32;20155;-61
2022/03/06 11:52:35;;;;;;;70.57;66.97;;;6.00;98.00;;;;;;4416822;32;20138;-61
2022/03/06 11:55:51;;;;;;;74.60;71.10;;;6.00;96.50;;;;;;4415281;32;20478;-61
2022/03/06 11:58:55;;;;;;;72.03;68.57;;;6.00;96.80;;;;;;4418259;32;20148;-61
2022/03/06 12:01:33;;;;;;;69.73;66.13;;;6.00;96.70;;;;;;4399523;32;20160;-61
2022/03/06 12:04:12;;;;;;;71.20;67.60;;;6.00;96.00;;;;;;4399532;32;20331;-60
2022/03/06 12:06:45;;;;;;;70.73;67.23;;;6.00;96.00;;;;;;4400081;32;20148;-61
2022/03/06 12:09:16;;;;;;;72.20;68.63;;;6.00;95.70;;;;;;4401491;32;20626;-61
2022/03/06 12:11:48;;;;;;;76.33;72.30;;;6.10;96.20;;;;;;4400318;32;20156;-61
2022/03/06 12:14:18;;;;;;;70.90;67.30;;;6.10;95.50;;;;;;4405550;32;20206;-61
2022/03/06 12:17:23;;;;;;;71.70;68.10;;;6.00;95.70;;;;;;4401842;32;20145;-61
2022/03/06 12:20:41;;;;;;;71.80;67.83;;;6.00;95.50;;;;;;4398807;32;20156;-61
2022/03/06 12:23:23;;;;;;;73.37;69.67;;;6.00;95.20;;;;;;4398866;32;20140;-61
2022/03/06 12:26:02;;;;;;;71.17;67.57;;;6.00;94.70;;;;;;4400312;32;20140;-61
2022/03/06 12:28:46;;;;;;;68.67;65.27;;;6.00;93.40;;;;;;4398894;32;20524;-61
2022/03/06 12:31:35;;;;;;;65.73;62.23;;;6.00;92.80;;;;;;4400614;32;20163;-61
2022/03/06 12:34:25;;;;;;;70.47;66.90;;;5.90;93.20;;;;;;4397690;32;20170;-61
2022/03/06 12:36:59;;;;;;;63.50;60.30;;;6.00;94.20;;;;;;4401418;32;20144;-59
2022/03/06 12:39:27;;;;;;;64.17;60.90;;;6.00;94.10;;;;;;4394355;32;20132;-61
2022/03/06 12:45:21;;;;;;;63.00;59.73;;;6.10;93.60;;;;;;4395834;32;20211;-60
2022/03/06 12:47:56;;;;;;;68.97;64.97;;;6.10;94.00;;;;;;4402556;32;20168;-61
2022/03/06 12:50:30;;;;;;;68.77;65.37;;;6.10;94.90;;;;;;4401960;32;20139;-61